Portada
METAR-TAF:

METAR-TAF

Aeropuertos :

Aeropuerto Germán Olano

Puerto Carreño, Colombia

latitud: 06-10N, longitud: 067-30W, altitud: 55 m

Observación

El informe se hizo hace 56 minutos, a las 19:00 UTC
Viento 5 kt del norte
Temperatura 31°C
Humedad 59%
Presión 1012 hPa
Visibilidad 10 km o más
Nubes dispersas a una altura de 1700 ft
Nubes dispersas a una altura de 7000 ft

METAR: SKPC 211900Z 01005KT 9999 SCT017 SCT070 31/22 A2989

Hora: 14:56 (19:56 UTC)


TAF: falta

Observaciones y pronósticos meteorológicos de más de 4000 aeropuertos (mensajes METAR y TAF).

Los puntos amarillos y rojos representan las estaciones disponibles.

Ponga el ratón en el punto deseado para ver el nombre de la estación.

Haga clic para ver las observaciones y los pronósticos meteorológicos.

Para cambiar el mapa : haga clic en los botones verdes con una cruz de color negro para hacer un zoom, en el botón verde con un guión para alejar o en las flechas verdes para mapas adyacentes.


METAR-TAF: